Rafha Domestic Airport
OERF : now visible

Airfield :











YOU CAN JOIN US ON...

 
LOGIN :

Register | Disclaimer

   EN    FR    IT 

 









Legend :    VFR   Marginal VFR   IFR   Intensive IFR   Very Intensive IFR
Visi :
Ceiling :
>= 8 km
>= 3000ft
5 to 8 km
1000 to 3000 ft
1500m to 5 km
500 to 1000 ft
800 to 1500m
200 to 500 ft
< 800m
< 200 ft
Symbols :   Thunderstorms  Fog  Heavy snow  Heavy precipitations  Wind > 20 kt






- Airport Elevation : 1474 ft
- IATA code : RAH


OERF - Rafha Domestic

CURRENT METAR :
  • 020700Z 34010KT CAVOK 22/04 Q1015

EXPIRED METARs :
  • 020600Z 33010KT CAVOK 21/04 Q1014
  • 020500Z 30011KT CAVOK 20/04 Q1013

TAF TAF OERF
Valid from the 02 at 00:00 until the 03 at 06:00 UTC


012300Z 0200/0306 32014KT CAVOK
BECMG 0217/0219 02006KT



MET'MAP, your aeronautical weather chart ! - Copyright ORBIFLY December 2007 - Disclaimer

ORBIFLY MET'MAP TEAM :

Programming & Development : Alexandra Zaïnal
Concept & original design : Baudouin d'Aumeries
Assistance for programming : Marc-Olivier Méhu
Technical & hardware support : Manuel Goepfert

Contact : metmap@orbifly.com




SOURCES & CREDITS :

   NOAA       Earth
Advisory